Terminal Aerodrome Forecast
Issued by NWS Paducah, KY

Home | Current Version | Previous Version | Graphics & Text | Print | Product List | Glossary On
Versions: 1 2 3 4 5 6 7 8 9 10 11 12 13 14
000
FTUS43 KPAH 201100
TAFPAH
TAF
KPAH 201120Z 2012/2112 00000KT P6SM SCT250
     FM201400 21008KT P6SM SCT045
     FM210000 21004KT P6SM FEW050
     FM210500 23006KT P6SM SCT050 BKN120
     FM210900 27005KT P6SM SCT015 BKN050=

USA.gov is the U.S. government's official web portal to all federal, state and local government web resources and services.